createdAt,value
2022-10-21T00:04:40.394Z,100427.81
2022-10-21T00:09:55.381Z,100420.19
2022-10-21T00:15:10.389Z,100430.63
2022-10-21T00:20:25.409Z,100431.91
2022-10-21T00:25:40.445Z,100456.25
2022-10-21T00:30:57.941Z,100474.28
2022-10-21T00:36:13.467Z,100457.56
2022-10-21T00:41:28.651Z,100449.19
2022-10-21T00:46:44.440Z,100443.41
2022-10-21T00:51:59.747Z,100434.84
2022-10-21T00:57:15.387Z,100424.97
2022-10-21T01:02:30.632Z,100420.44
2022-10-21T01:08:24.741Z,100422.53
2022-10-21T01:13:40.437Z,100413.41
2022-10-21T01:18:55.167Z,100411.16
2022-10-21T01:24:10.688Z,100402.25
2022-10-21T01:29:27.735Z,100402.78
2022-10-21T01:34:43.785Z,100383.78
2022-10-21T01:39:59.463Z,100385.09
2022-10-21T01:45:14.406Z,100384.34
2022-10-21T01:50:29.734Z,100378.00
2022-10-21T01:55:45.423Z,100359.97
2022-10-21T02:01:00.740Z,100355.16
2022-10-21T02:06:16.708Z,100351.63
2022-10-21T02:11:32.749Z,100341.00
2022-10-21T02:16:48.741Z,100341.75
2022-10-21T02:22:03.417Z,100335.41
2022-10-21T02:27:18.428Z,100317.22
2022-10-21T02:32:33.724Z,100323.50
2022-10-21T02:37:49.433Z,100318.69
2022-10-21T02:43:04.423Z,100313.31
2022-10-21T02:48:19.410Z,100312.03
2022-10-21T02:53:34.493Z,100315.34
2022-10-21T02:58:49.494Z,100316.66
2022-10-21T03:04:04.499Z,100306.06
2022-10-21T03:09:19.469Z,100305.47
2022-10-21T03:14:34.720Z,100310.88
2022-10-21T03:19:50.407Z,100312.16
2022-10-21T03:25:05.473Z,100309.16
2022-10-21T03:30:20.390Z,100317.31
2022-10-21T03:35:35.414Z,100308.97
2022-10-21T03:40:50.453Z,100300.59
2022-10-21T03:46:05.408Z,100293.50
2022-10-21T03:51:20.460Z,100278.09
2022-10-21T03:56:35.748Z,100278.09
2022-10-21T04:01:51.529Z,100280.16
2022-10-21T04:07:06.432Z,100281.63
2022-10-21T04:12:21.712Z,100274.97
2022-10-21T04:17:37.634Z,100278.28
2022-10-21T04:22:53.717Z,100278.28
2022-10-21T04:28:09.735Z,100286.09
2022-10-21T04:33:25.767Z,100286.09
2022-10-21T04:38:41.224Z,100284.81
2022-10-21T04:43:56.742Z,100288.56
2022-10-21T04:49:12.706Z,100295.63
2022-10-21T04:54:28.434Z,100290.78
2022-10-21T04:59:43.745Z,100291.41
2022-10-21T05:04:59.743Z,100289.91
2022-10-21T05:10:15.426Z,100296.03
2022-10-21T05:15:30.419Z,100293.78
2022-10-21T05:20:45.697Z,100290.03
2022-10-21T05:26:01.675Z,100289.84
2022-10-21T05:31:17.407Z,100282.25
2022-10-21T05:36:32.472Z,100284.03
2022-10-21T05:41:48.167Z,100288.69
2022-10-21T05:47:03.400Z,100301.13
2022-10-21T05:52:18.449Z,100298.91
2022-10-21T05:57:33.420Z,100293.34
2022-10-21T06:02:48.477Z,100275.09
2022-10-21T06:08:03.456Z,100270.78
2022-10-21T06:13:18.411Z,100272.09
2022-10-21T06:18:33.452Z,100259.44
2022-10-21T06:23:49.731Z,100270.59
2022-10-21T06:29:05.442Z,100248.13
2022-10-21T06:34:20.482Z,100262.06
2022-10-21T06:39:35.760Z,100262.06
2022-10-21T06:44:52.728Z,100264.84
2022-10-21T06:50:09.730Z,100268.94
2022-10-21T06:55:25.465Z,100277.28
2022-10-21T07:00:40.456Z,100286.94
2022-10-21T07:05:55.542Z,100294.03
2022-10-21T07:11:10.453Z,100293.78
2022-10-21T07:16:25.460Z,100297.88
2022-10-21T07:21:40.395Z,100295.09
2022-10-21T07:26:55.396Z,100306.97
2022-10-21T07:32:10.750Z,100313.28
2022-10-21T07:37:26.661Z,100317.63
2022-10-21T07:42:42.411Z,100319.13
2022-10-21T07:47:57.397Z,100326.72
2022-10-21T07:53:13.156Z,100335.59
2022-10-21T07:58:28.200Z,100337.13
2022-10-21T08:03:43.808Z,100337.13
2022-10-21T08:08:59.572Z,100337.88
2022-10-21T08:14:14.414Z,100327.25
2022-10-21T08:19:29.271Z,100325.22
2022-10-21T08:24:44.428Z,100326.50
2022-10-21T08:29:59.446Z,100323.19
2022-10-21T08:35:14.437Z,100324.44
2022-10-21T08:40:29.817Z,100309.03
2022-10-21T08:45:45.693Z,100310.50
2022-10-21T08:51:01.481Z,100309.25
2022-10-21T08:56:19.817Z,100312.03
2022-10-21T09:01:35.443Z,100319.66
2022-10-21T09:06:50.653Z,100310.00
2022-10-21T09:12:05.736Z,100313.53
2022-10-21T09:17:21.436Z,100313.53
2022-10-21T09:22:36.460Z,100325.44
2022-10-21T09:27:56.146Z,100359.66
2022-10-21T09:33:11.778Z,100365.94
2022-10-21T09:38:27.501Z,100370.06
2022-10-21T09:43:42.448Z,100373.88
2022-10-21T09:49:36.299Z,100370.16
2022-10-21T09:54:32.415Z,100376.50
2022-10-21T09:59:47.444Z,100368.88
2022-10-21T10:05:02.528Z,100353.13
2022-10-21T10:10:17.768Z,100349.53
2022-10-21T10:15:33.317Z,100365.34
2022-10-21T10:20:48.526Z,100368.66
2022-10-21T10:26:03.571Z,100357.50
2022-10-21T10:31:18.211Z,100358.25
2022-10-21T10:36:33.515Z,100363.66
2022-10-21T10:41:48.461Z,100360.88
2022-10-21T10:47:03.517Z,100374.06
2022-10-21T10:52:18.525Z,100371.06
2022-10-21T10:57:44.437Z,100373.31
2022-10-21T11:03:07.481Z,100376.09
2022-10-21T11:08:22.442Z,100370.53
2022-10-21T11:13:41.300Z,100364.94
2022-10-21T11:18:57.458Z,100367.72
2022-10-21T11:24:12.483Z,100376.09
2022-10-21T11:29:27.426Z,100376.09
2022-10-21T11:34:42.443Z,100369.56
2022-10-21T11:39:57.507Z,100362.91
2022-10-21T11:45:12.894Z,100372.53
2022-10-21T11:50:28.776Z,100351.75
2022-10-21T11:55:44.582Z,100359.00
2022-10-21T12:00:59.491Z,100349.53
2022-10-21T12:06:14.459Z,100351.81
2022-10-21T12:11:29.769Z,100345.72
2022-10-21T12:16:45.824Z,100341.81
2022-10-21T12:22:01.480Z,100340.75
2022-10-21T12:27:16.747Z,100335.34
2022-10-21T12:32:32.436Z,100323.09
2022-10-21T12:37:47.461Z,100326.88
2022-10-21T12:43:02.513Z,100332.63
2022-10-21T12:48:17.443Z,100341.75
2022-10-21T12:53:32.440Z,100346.56
2022-10-21T12:58:47.429Z,100344.00
2022-10-21T13:04:02.538Z,100334.88
2022-10-21T13:09:17.331Z,100338.22
2022-10-21T13:14:36.138Z,100344.75
2022-10-21T13:19:51.496Z,100333.59
2022-10-21T13:25:06.825Z,100326.72
2022-10-21T13:30:22.473Z,100332.84
2022-10-21T13:35:37.508Z,100344.75
2022-10-21T13:40:53.020Z,100341.97
2022-10-21T13:46:08.994Z,100347.00
2022-10-21T13:51:24.441Z,100352.03
2022-10-21T13:56:39.521Z,100347.94
2022-10-21T14:01:54.515Z,100355.00
2022-10-21T14:07:10.531Z,100353.72
2022-10-21T14:12:25.464Z,100353.19
2022-10-21T14:17:40.616Z,100361.56
2022-10-21T14:22:56.805Z,100361.56
2022-10-21T14:28:12.475Z,100356.72
2022-10-21T14:33:27.454Z,100355.44
2022-10-21T14:38:42.481Z,100351.34
2022-10-21T14:43:57.473Z,100347.81
2022-10-21T14:49:12.523Z,100349.31
2022-10-21T14:54:28.485Z,100348.56
2022-10-21T14:59:43.511Z,100355.63
2022-10-21T15:04:58.451Z,100348.00
2022-10-21T15:10:13.331Z,100351.53
2022-10-21T15:15:28.476Z,100356.38
2022-10-21T15:20:43.504Z,100363.25
2022-10-21T15:25:59.039Z,100364.56
2022-10-21T15:31:14.231Z,100370.88
2022-10-21T15:36:29.521Z,100370.88
2022-10-21T15:41:44.747Z,100363.81
2022-10-21T15:47:00.276Z,100353.19
2022-10-21T15:52:15.455Z,100349.09
2022-10-21T15:57:30.445Z,100352.09
2022-10-21T16:02:45.840Z,100362.69
2022-10-21T16:08:01.571Z,100362.69
2022-10-21T16:13:16.488Z,100345.22
2022-10-21T16:18:31.513Z,100356.19
2022-10-21T16:23:46.504Z,100363.25
2022-10-21T16:29:01.490Z,100373.66
2022-10-21T16:34:16.878Z,100384.63
2022-10-21T16:39:32.596Z,100375.28
2022-10-21T16:44:47.482Z,100389.97
2022-10-21T16:50:02.558Z,100392.44
2022-10-21T16:55:17.502Z,100386.66
2022-10-21T17:00:32.501Z,100399.31
2022-10-21T17:05:47.801Z,100400.06
2022-10-21T17:11:03.479Z,100405.66
2022-10-21T17:16:18.483Z,100408.97
2022-10-21T17:21:33.806Z,100411.75
2022-10-21T17:26:49.504Z,100418.63
2022-10-21T17:32:04.776Z,100418.09
2022-10-21T17:37:20.482Z,100429.78
2022-10-21T17:42:36.019Z,100440.19
2022-10-21T17:47:51.911Z,100433.34
2022-10-21T17:53:07.809Z,100445.03
2022-10-21T17:58:23.506Z,100444.28
2022-10-21T18:03:38.497Z,100446.31
2022-10-21T18:08:53.531Z,100440.72
2022-10-21T18:14:08.523Z,100437.94
2022-10-21T18:19:23.452Z,100446.31
2022-10-21T18:24:38.333Z,100447.63
2022-10-21T18:29:53.969Z,100453.94
2022-10-21T18:35:09.253Z,100443.53
2022-10-21T18:40:24.480Z,100447.63
2022-10-21T18:45:39.511Z,100439.97
2022-10-21T18:50:54.565Z,100439.97
2022-10-21T18:56:09.497Z,100446.88
2022-10-21T19:01:24.574Z,100453.75
2022-10-21T19:06:39.503Z,100450.97
2022-10-21T19:11:54.529Z,100463.41
2022-10-21T19:17:09.513Z,100466.19
2022-10-21T19:22:24.583Z,100459.84
2022-10-21T19:27:39.701Z,100464.69
2022-10-21T19:32:55.499Z,100455.56
2022-10-21T19:38:20.462Z,100460.81
2022-10-21T19:43:41.839Z,100469.81
2022-10-21T19:48:57.494Z,100475.03
2022-10-21T19:54:12.559Z,100475.78
2022-10-21T19:59:27.518Z,100482.88
2022-10-21T20:04:42.563Z,100476.22
2022-10-21T20:09:57.488Z,100474.94
2022-10-21T20:15:12.704Z,100470.28
2022-10-21T20:20:27.808Z,100470.28
2022-10-21T20:25:43.498Z,100472.31
2022-10-21T20:30:58.539Z,100473.06
2022-10-21T20:36:13.256Z,100480.91
2022-10-21T20:41:28.801Z,100485.22
2022-10-21T20:46:44.704Z,100493.78
2022-10-21T20:52:00.812Z,100492.47
2022-10-21T20:57:16.548Z,100497.31
2022-10-21T21:02:31.514Z,100501.59
2022-10-21T21:07:46.535Z,100509.47
2022-10-21T21:13:01.793Z,100519.84
2022-10-21T21:18:17.861Z,100518.59
2022-10-21T21:23:33.502Z,100529.75
2022-10-21T21:28:48.490Z,100522.84
2022-10-21T21:34:03.773Z,100531.44
2022-10-21T21:39:19.538Z,100518.59
2022-10-21T21:44:34.523Z,100525.09
2022-10-21T21:49:49.599Z,100525.09
2022-10-21T21:55:04.497Z,100526.59
2022-10-21T22:00:19.788Z,100525.84
2022-10-21T22:05:35.633Z,100530.13
2022-10-21T22:10:50.518Z,100528.84
2022-10-21T22:16:05.483Z,100531.88
2022-10-21T22:21:20.595Z,100531.88
2022-10-21T22:26:35.470Z,100530.34
2022-10-21T22:31:50.531Z,100521.97
2022-10-21T22:37:05.554Z,100521.03
2022-10-21T22:42:20.541Z,100509.09
2022-10-21T22:47:35.258Z,100510.41
2022-10-21T22:52:50.486Z,100511.16
2022-10-21T22:58:05.839Z,100516.72
2022-10-21T23:03:21.489Z,100509.66
2022-10-21T23:08:36.545Z,100510.22
2022-10-21T23:14:02.526Z,100514.25
2022-10-21T23:19:18.513Z,100504.38
2022-10-21T23:24:34.552Z,100511.25
2022-10-21T23:29:49.493Z,100508.47
2022-10-21T23:35:04.503Z,100520.94
2022-10-21T23:40:19.560Z,100518.69
2022-10-21T23:45:34.843Z,100520.94
2022-10-21T23:50:50.540Z,100517.59
2022-10-21T23:56:05.495Z,100525.63
